Terminal Aerodrome Forecast
Issued by NWS Wilmington, OH

Current Version | Previous Version | Text Only | Print | Product List | Glossary Off
Versions: 1 2 3 4 5 6 7 8 9 10 11 12 13 14 15 16 17 18 19 20 21 22 23 24

000
FTUS41 KILN 260500 RRA
TAFCVG
TAF
KCVG 260545Z 2606/2712 02008KT P6SM -SHRA OVC040
      TEMPO 2606/2607 2SM -TSRA BR OVC035CB
     FM260700 12009KT 3SM -SHRA BR VCTS SCT015 OVC035CB
     FM261200 33012G22KT 4SM -SHRA BR OVC015
     FM261800 32011G20KT 5SM BR OVC022
     FM262300 32011G20KT P6SM SCT035 BKN100
     FM270600 32006KT P6SM BKN050=

USA.gov is the U.S. government's official web portal to all federal, state and local government web resources and services.